Time;durP1;ratioP1;P1;durP2;ratioP2;P2;SDS_P1;SDS_P2;PMS_P1;PMS_P2;Temp;Humidity;BMP_temperature;BMP_pressure;BME280_temperature;BME280_humidity;BME280_pressure;Samples;Min_cycle;Max_cycle;Signal;HPM_P1;HPM_P2
2023/05/27 00:00:28;;;;;;;;;;;;;;;;;;4976240;28;19921;-89
2023/05/27 00:03:14;;;;;;;;;;;;;;;;;;4963539;28;19960;-92
2023/05/27 00:06:00;;;;;;;;;;;;;;;;;;4945891;28;19919;-90
2023/05/27 00:08:47;;;;;;;;;;;;;;;;;;4964515;28;20423;-89
2023/05/27 00:11:33;;;;;;;;;;;;;;;;;;4964349;28;19926;-90
2023/05/27 00:14:21;;;;;;;;;;;;;;;;;;4964407;28;20366;-90
2023/05/27 00:17:13;;;;;;;;;;;;;;;;;;4964424;28;20001;-90
2023/05/27 00:20:06;;;;;;;;;;;;;;;;;;4962567;28;19930;-89
2023/05/27 00:22:52;;;;;;;;;;;;;;;;;;4956204;28;20386;-90
2023/05/27 00:25:39;;;;;;;;;;;;;;;;;;4965917;28;19930;-90
2023/05/27 00:28:28;;;;;;;;;;;;;;;;;;4965150;28;20288;-90
2023/05/27 00:31:15;;;;;;;;;;;;;;;;;;4966513;28;20538;-90
2023/05/27 00:34:01;;;;;;;;;;;;;;;;;;4976749;28;19925;-90
2023/05/27 00:36:48;;;;;;;;;;;;;;;;;;4952535;28;19950;-92
2023/05/27 00:39:34;;;;;;;;;;;;;;;;;;4968621;28;19930;-91
2023/05/27 00:42:21;;;;;;;;;;;;;;;;;;4964814;28;19929;-93
2023/05/27 00:45:07;;;;;;;;;;;;;;;;;;4954061;28;19926;-91
2023/05/27 00:47:54;;;;;;;;;;;;;;;;;;4973389;28;19929;-91
2023/05/27 00:50:40;;;;;;;;;;;;;;;;;;4967507;28;19929;-88
2023/05/27 00:53:27;;;;;;;;;;;;;;;;;;4962949;28;19929;-91
2023/05/27 00:56:15;;;;;;;;;;;;;;;;;;4960177;28;19952;-91
2023/05/27 00:59:02;;;;;;;;;;;;;;;;;;4967204;28;19930;-89
2023/05/27 01:01:49;;;;;;;;;;;;;;;;;;4965527;28;19921;-88
2023/05/27 01:04:36;;;;;;;;;;;;;;;;;;4959897;28;19918;-89
2023/05/27 01:07:22;;;;;;;;;;;;;;;;;;4962268;28;19930;-89
2023/05/27 01:10:09;;;;;;;;;;;;;;;;;;4956616;28;19922;-88
2023/05/27 01:12:56;;;;;;;;;;;;;;;;;;4955866;28;19925;-90
2023/05/27 01:15:42;;;;;;;;;;;;;;;;;;4970614;28;19922;-87
2023/05/27 01:18:33;;;;;;;;;;;;;;;;;;4953686;28;19925;-88
2023/05/27 01:21:19;;;;;;;;;;;;;;;;;;4960668;28;19930;-89
2023/05/27 01:24:06;;;;;;;;;;;;;;;;;;4952682;28;19922;-89
2023/05/27 01:26:52;;;;;;;;;;;;;;;;;;4961554;28;19926;-91
2023/05/27 01:29:39;;;;;;;;;;;;;;;;;;4966053;28;19922;-89
2023/05/27 01:32:26;;;;;;;;;;;;;;;;;;4953706;28;19922;-89
2023/05/27 01:35:12;;;;;;;;;;;;;;;;;;4950344;28;19945;-90
2023/05/27 01:37:59;;;;;;;;;;;;;;;;;;4967009;28;19918;-89
2023/05/27 01:40:45;;;;;;;;;;;;;;;;;;4938925;29;19932;-89
2023/05/27 01:43:32;;;;;;;;;;;;;;;;;;4973932;28;19918;-90
2023/05/27 01:46:18;;;;;;;;;;;;;;;;;;4963553;28;19926;-89
2023/05/27 01:49:05;;;;;;;;;;;;;;;;;;4957071;28;19926;-91
2023/05/27 01:51:51;;;;;;;;;;;;;;;;;;4960332;28;19926;-88
2023/05/27 01:54:38;;;;;;;;;;;;;;;;;;4954416;28;19922;-86
2023/05/27 01:57:24;;;;;;;;;;;;;;;;;;4952126;28;20136;-86
2023/05/27 02:00:11;;;;;;;;;;;;;;;;;;4952226;28;19927;-87
2023/05/27 02:02:58;;;;;;;;;;;;;;;;;;4963058;28;19915;-81
2023/05/27 02:05:45;;;;;;;;;;;;;;;;;;4963374;28;19923;-87
2023/05/27 02:08:33;;;;;;;;;;;;;;;;;;4959425;28;20369;-88
2023/05/27 02:11:20;;;;;;;;;;;;;;;;;;4962229;28;19918;-88
2023/05/27 02:14:07;;;;;;;;;;;;;;;;;;4962438;28;19918;-90
2023/05/27 02:16:54;;;;;;;;;;;;;;;;;;4957409;28;19926;-89
2023/05/27 02:19:41;;;;;;;;;;;;;;;;;;4970875;28;19926;-89
2023/05/27 02:22:27;;;;;;;;;;;;;;;;;;4958835;28;19922;-88
2023/05/27 02:25:14;;;;;;;;;;;;;;;;;;4963792;28;19937;-88
2023/05/27 02:28:02;;;;;;;;;;;;;;;;;;4951089;28;19922;-88
2023/05/27 02:30:48;;;;;;;;;;;;;;;;;;4960273;28;19922;-87
2023/05/27 02:33:35;;;;;;;;;;;;;;;;;;4958292;28;19932;-87
2023/05/27 02:36:23;;;;;;;;;;;;;;;;;;4957020;28;19929;-87
2023/05/27 02:39:10;;;;;;;;;;;;;;;;;;4965683;28;19936;-88
2023/05/27 02:41:57;;;;;;;;;;;;;;;;;;4961923;28;20349;-88
2023/05/27 02:44:43;;;;;;;;;;;;;;;;;;4959392;28;19929;-88
2023/05/27 02:47:30;;;;;;;;;;;;;;;;;;4955357;28;19925;-88
2023/05/27 02:50:16;;;;;;;;;;;;;;;;;;4964650;28;21181;-88
2023/05/27 02:53:02;;;;;;;;;;;;;;;;;;4963416;28;19921;-88
2023/05/27 02:55:49;;;;;;;;;;;;;;;;;;4958750;28;20366;-89
2023/05/27 02:58:35;;;;;;;;;;;;;;;;;;4974779;28;19930;-88
2023/05/27 03:01:22;;;;;;;;;;;;;;;;;;4961590;28;20376;-89
2023/05/27 03:04:08;;;;;;;;;;;;;;;;;;4977157;28;19929;-90
2023/05/27 03:06:55;;;;;;;;;;;;;;;;;;4982484;28;20021;-89
2023/05/27 03:09:41;;;;;;;;;;;;;;;;;;4964343;28;19950;-89
2023/05/27 03:12:28;;;;;;;;;;;;;;;;;;4969813;28;20286;-90
2023/05/27 03:15:14;;;;;;;;;;;;;;;;;;4971084;28;19918;-90
2023/05/27 03:18:03;;;;;;;;;;;;;;;;;;4973804;28;19922;-90
2023/05/27 03:20:50;;;;;;;;;;;;;;;;;;4967485;28;20386;-88
2023/05/27 03:23:37;;;;;;;;;;;;;;;;;;4962989;28;19928;-88
2023/05/27 03:26:25;;;;;;;;;;;;;;;;;;4944278;28;19941;-90
2023/05/27 03:29:11;;;;;;;;;;;;;;;;;;4972041;28;19921;-91
2023/05/27 03:31:58;;;;;;;;;;;;;;;;;;4966919;28;19922;-81
2023/05/27 03:34:44;;;;;;;;;;;;;;;;;;4959507;28;20404;-91
2023/05/27 03:37:31;;;;;;;;;;;;;;;;;;4962761;28;20307;-91
2023/05/27 03:40:17;;;;;;;;;;;;;;;;;;4963536;28;19934;-89
2023/05/27 03:43:04;;;;;;;;;;;;;;;;;;4965497;28;20748;-89
2023/05/27 03:45:50;;;;;;;;;;;;;;;;;;4970444;28;19922;-92
2023/05/27 03:48:37;;;;;;;;;;;;;;;;;;4966000;28;20646;-92
2023/05/27 03:51:23;;;;;;;;;;;;;;;;;;4964977;28;19922;-89
2023/05/27 03:54:10;;;;;;;;;;;;;;;;;;4965503;28;19924;-89
2023/05/27 03:56:56;;;;;;;;;;;;;;;;;;4959734;28;19918;-90
2023/05/27 03:59:42;;;;;;;;;;;;;;;;;;4966291;28;19941;-88
2023/05/27 04:02:29;;;;;;;;;;;;;;;;;;4962490;28;19929;-91
2023/05/27 04:05:19;;;;;;;;;;;;;;;;;;4956993;28;19957;-90
2023/05/27 04:08:05;;;;;;;;;;;;;;;;;;4961087;28;19926;-90
2023/05/27 04:10:52;;;;;;;;;;;;;;;;;;4963064;28;20011;-88
2023/05/27 04:13:38;;;;;;;;;;;;;;;;;;4963319;28;19929;-88
2023/05/27 04:16:25;;;;;;;;;;;;;;;;;;4961457;28;19929;-89
2023/05/27 04:19:11;;;;;;;;;;;;;;;;;;4946375;28;19926;-89
2023/05/27 04:21:58;;;;;;;;;;;;;;;;;;4968968;28;19930;-81
2023/05/27 04:24:44;;;;;;;;;;;;;;;;;;4958952;28;20273;-89
2023/05/27 04:27:31;;;;;;;;;;;;;;;;;;4964813;28;19926;-88
2023/05/27 04:30:17;;;;;;;;;;;;;;;;;;4959703;28;19918;-88
2023/05/27 04:33:04;;;;;;;;;;;;;;;;;;4960741;28;19925;-88
2023/05/27 04:35:53;;;;;;;;;;;;;;;;;;4969842;28;19953;-88
2023/05/27 04:38:40;;;;;;;;;;;;;;;;;;4959125;28;19924;-90
2023/05/27 04:41:27;;;;;;;;;;;;;;;;;;4957278;28;20200;-91
2023/05/27 04:44:13;;;;;;;;;;;;;;;;;;4958067;28;19925;-90
2023/05/27 04:47:00;;;;;;;;;;;;;;;;;;4970059;28;20491;-90
2023/05/27 04:49:46;;;;;;;;;;;;;;;;;;4957461;28;19918;-91
2023/05/27 04:52:36;;;;;;;;;;;;;;;;;;4970705;28;19926;-92
2023/05/27 04:55:23;;;;;;;;;;;;;;;;;;4959394;28;19929;-90
2023/05/27 04:58:09;;;;;;;;;;;;;;;;;;4964918;28;19922;-89
2023/05/27 05:00:57;;;;;;;;;;;;;;;;;;4963786;28;19932;-89
2023/05/27 05:03:51;;;;;;;;;;;;;;;;;;4968279;28;19925;-86
2023/05/27 05:06:38;;;;;;;;;;;;;;;;;;4959846;28;20293;-91
2023/05/27 05:09:25;;;;;;;;;;;;;;;;;;4961282;28;20010;-89
2023/05/27 05:12:12;;;;;;;;;;;;;;;;;;4961968;28;19946;-89
2023/05/27 05:14:58;;;;;;;;;;;;;;;;;;4965410;28;20297;-85
2023/05/27 05:17:45;;;;;;;;;;;;;;;;;;4961802;28;19923;-90
2023/05/27 05:20:31;;;;;;;;;;;;;;;;;;4957987;28;19926;-88
2023/05/27 05:23:18;;;;;;;;;;;;;;;;;;4973581;28;21033;-87
2023/05/27 05:26:06;;;;;;;;;;;;;;;;;;4964254;28;20378;-90
2023/05/27 05:28:52;;;;;;;;;;;;;;;;;;4967212;28;20407;-91
2023/05/27 05:31:39;;;;;;;;;;;;;;;;;;4950268;28;19928;-91
2023/05/27 05:34:25;;;;;;;;;;;;;;;;;;4970545;28;19921;-89
2023/05/27 05:37:12;;;;;;;;;;;;;;;;;;4965164;28;19918;-92
2023/05/27 05:39:58;;;;;;;;;;;;;;;;;;4961861;28;19936;-89
2023/05/27 05:42:45;;;;;;;;;;;;;;;;;;4954034;28;19923;-92
2023/05/27 05:45:32;;;;;;;;;;;;;;;;;;4956373;28;19941;-89
2023/05/27 05:48:18;;;;;;;;;;;;;;;;;;4961618;28;20578;-90
2023/05/27 05:51:05;;;;;;;;;;;;;;;;;;4959149;28;19926;-92
2023/05/27 05:53:52;;;;;;;;;;;;;;;;;;4949987;28;19917;-91
2023/05/27 05:56:38;;;;;;;;;;;;;;;;;;4966043;28;19922;-87
2023/05/27 05:59:25;;;;;;;;;;;;;;;;;;4958545;28;19926;-89
2023/05/27 06:02:11;;;;;;;;;;;;;;;;;;4955669;28;19928;-90
2023/05/27 06:04:58;;;;;;;;;;;;;;;;;;4966731;28;19929;-89
2023/05/27 06:07:45;;;;;;;;;;;;;;;;;;4966033;28;19918;-88
2023/05/27 06:10:31;;;;;;;;;;;;;;;;;;4965595;28;19929;-90
2023/05/27 06:13:18;;;;;;;;;;;;;;;;;;4952312;28;19922;-88
2023/05/27 06:16:04;;;;;;;;;;;;;;;;;;4967474;28;19929;-87
2023/05/27 06:18:51;;;;;;;;;;;;;;;;;;4962593;28;19999;-89
2023/05/27 06:21:38;;;;;;;;;;;;;;;;;;4956171;28;20009;-88
2023/05/27 06:24:24;;;;;;;;;;;;;;;;;;4963493;28;19930;-89
2023/05/27 06:27:11;;;;;;;;;;;;;;;;;;4967268;28;19926;-89
2023/05/27 06:29:57;;;;;;;;;;;;;;;;;;4958246;28;19929;-89
2023/05/27 06:32:44;;;;;;;;;;;;;;;;;;4951284;28;19919;-89
2023/05/27 06:35:30;;;;;;;;;;;;;;;;;;4964047;28;19922;-88
2023/05/27 06:38:17;;;;;;;;;;;;;;;;;;4966406;28;20582;-88
2023/05/27 06:41:03;;;;;;;;;;;;;;;;;;4971691;28;19926;-87
2023/05/27 06:43:50;;;;;;;;;;;;;;;;;;4963327;28;19918;-88
2023/05/27 06:46:36;;;;;;;;;;;;;;;;;;4965356;28;20543;-90
2023/05/27 06:49:23;;;;;;;;;;;;;;;;;;4962296;28;19925;-89
2023/05/27 06:52:09;;;;;;;;;;;;;;;;;;4972146;28;19928;-89
2023/05/27 06:54:56;;;;;;;;;;;;;;;;;;4968336;28;20374;-89
2023/05/27 06:57:42;;;;;;;;;;;;;;;;;;4974150;28;19924;-89
2023/05/27 07:00:29;;;;;;;;;;;;;;;;;;4958494;28;19926;-89
2023/05/27 07:03:16;;;;;;;;;;;;;;;;;;4965032;28;19958;-89
2023/05/27 07:06:02;;;;;;;;;;;;;;;;;;4971780;28;19922;-92
2023/05/27 07:08:49;;;;;;;;;;;;;;;;;;4966509;28;20337;-89
2023/05/27 07:11:35;;;;;;;;;;;;;;;;;;4963881;28;19922;-89
2023/05/27 07:14:22;;;;;;;;;;;;;;;;;;4967030;28;19929;-90
2023/05/27 07:17:08;;;;;;;;;;;;;;;;;;4970169;28;19922;-90
2023/05/27 07:19:55;;;;;;;;;;;;;;;;;;4971846;28;19929;-89
2023/05/27 07:22:41;;;;;;;;;;;;;;;;;;4968582;28;19922;-89
2023/05/27 07:25:28;;;;;;;;;;;;;;;;;;4963261;28;19933;-89
2023/05/27 07:28:14;;;;;;;;;;;;;;;;;;4971162;28;20292;-89
2023/05/27 07:31:01;;;;;;;;;;;;;;;;;;4969178;28;19922;-90
2023/05/27 07:33:47;;;;;;;;;;;;;;;;;;4958440;28;19919;-89
2023/05/27 07:36:34;;;;;;;;;;;;;;;;;;4972260;28;19925;-89
2023/05/27 07:39:21;;;;;;;;;;;;;;;;;;4964554;28;19937;-91
2023/05/27 07:42:07;;;;;;;;;;;;;;;;;;4958249;28;19929;-89
2023/05/27 07:44:55;;;;;;;;;;;;;;;;;;4972454;28;19922;-90
2023/05/27 07:47:41;;;;;;;;;;;;;;;;;;4961785;28;19918;-90
2023/05/27 07:50:28;;;;;;;;;;;;;;;;;;4958503;28;19922;-89
2023/05/27 07:53:14;;;;;;;;;;;;;;;;;;4956668;28;19923;-90
2023/05/27 07:56:01;;;;;;;;;;;;;;;;;;4962838;28;19929;-89
2023/05/27 07:58:47;;;;;;;;;;;;;;;;;;4960187;28;19918;-89
2023/05/27 08:01:34;;;;;;;;;;;;;;;;;;4957318;28;20366;-89
2023/05/27 08:04:20;;;;;;;;;;;;;;;;;;4953048;28;20683;-89
2023/05/27 08:07:06;;;;;;;;;;;;;;;;;;4959564;28;19926;-89
2023/05/27 08:09:53;;;;;;;;;;;;;;;;;;4964126;28;19919;-90
2023/05/27 08:12:39;;;;;;;;;;;;;;;;;;4961296;28;19926;-88
2023/05/27 08:15:26;;;;;;;;;;;;;;;;;;4961429;28;19914;-89
2023/05/27 08:18:13;;;;;;;;;;;;;;;;;;4965491;28;19914;-89
2023/05/27 08:20:59;;;;;;;;;;;;;;;;;;4970545;28;19952;-88
2023/05/27 08:23:46;;;;;;;;;;;;;;;;;;4965988;28;19918;-88
2023/05/27 08:26:32;;;;;;;;;;;;;;;;;;4967283;28;20389;-87
2023/05/27 08:29:19;;;;;;;;;;;;;;;;;;4967869;28;19918;-88
2023/05/27 08:32:05;;;;;;;;;;;;;;;;;;4957030;28;19924;-89
2023/05/27 08:34:53;;;;;;;;;;;;;;;;;;4971499;28;19923;-88
2023/05/27 08:37:40;;;;;;;;;;;;;;;;;;4969222;28;19925;-89
2023/05/27 08:40:26;;;;;;;;;;;;;;;;;;4966721;28;19934;-90
2023/05/27 08:43:13;;;;;;;;;;;;;;;;;;4964773;28;19925;-90
2023/05/27 08:45:59;;;;;;;;;;;;;;;;;;4965206;28;19922;-89
2023/05/27 08:48:46;;;;;;;;;;;;;;;;;;4964771;28;20241;-89
2023/05/27 08:51:32;;;;;;;;;;;;;;;;;;4967450;28;19934;-89
2023/05/27 08:54:19;;;;;;;;;;;;;;;;;;4941528;28;19922;-90
2023/05/27 08:57:07;;;;;;;;;;;;;;;;;;4953127;28;19922;-90
2023/05/27 08:59:53;;;;;;;;;;;;;;;;;;4967280;28;20205;-91
2023/05/27 09:02:40;;;;;;;;;;;;;;;;;;4958863;28;19925;-90
2023/05/27 09:05:26;;;;;;;;;;;;;;;;;;4954938;28;20369;-90
2023/05/27 09:08:13;;;;;;;;;;;;;;;;;;4971215;28;19941;-90
2023/05/27 09:11:00;;;;;;;;;;;;;;;;;;4963853;28;19919;-89
2023/05/27 09:13:46;;;;;;;;;;;;;;;;;;4962942;28;19930;-90
2023/05/27 09:16:33;;;;;;;;;;;;;;;;;;4956443;28;19922;-90
2023/05/27 09:19:20;;;;;;;;;;;;;;;;;;4962304;28;19926;-89
2023/05/27 09:22:06;;;;;;;;;;;;;;;;;;4964967;28;19937;-88
2023/05/27 09:24:56;;;;;;;;;;;;;;;;;;4963588;28;19937;-90
2023/05/27 09:27:42;;;;;;;;;;;;;;;;;;4960639;28;19918;-89
2023/05/27 09:30:29;;;;;;;;;;;;;;;;;;4950376;28;20298;-89
2023/05/27 09:33:16;;;;;;;;;;;;;;;;;;4962273;28;19929;-88
2023/05/27 09:36:03;;;;;;;;;;;;;;;;;;4961176;28;20285;-89
2023/05/27 09:38:50;;;;;;;;;;;;;;;;;;4953856;28;19919;-89
2023/05/27 09:41:37;;;;;;;;;;;;;;;;;;4956391;28;19934;-88
2023/05/27 09:44:23;;;;;;;;;;;;;;;;;;4962721;28;19993;-86
2023/05/27 09:47:10;;;;;;;;;;;;;;;;;;4969585;28;19948;-87
2023/05/27 09:49:56;;;;;;;;;;;;;;;;;;4970172;28;20430;-86
2023/05/27 09:52:43;;;;;;;;;;;;;;;;;;4951207;28;19918;-76
2023/05/27 09:55:30;;;;;;;;;;;;;;;;;;4962832;28;19988;-77
2023/05/27 09:58:17;;;;;;;;;;;;;;;;;;4955763;28;19918;-77
2023/05/27 10:01:04;;;;;;;;;;;;;;;;;;4942699;28;19931;-79
2023/05/27 10:03:50;;;;;;;;;;;;;;;;;;4959321;28;20312;-81
2023/05/27 10:06:37;;;;;;;;;;;;;;;;;;4958649;28;19926;-79
2023/05/27 10:09:24;;;;;;;;;;;;;;;;;;4954699;28;20608;-79
2023/05/27 10:12:10;;;;;;;;;;;;;;;;;;4953195;28;19922;-77
2023/05/27 10:14:57;;;;;;;;;;;;;;;;;;4961428;28;19929;-77
2023/05/27 10:17:43;;;;;;;;;;;;;;;;;;4955860;28;20305;-77
2023/05/27 10:20:30;;;;;;;;;;;;;;;;;;4948556;28;19926;-76
2023/05/27 10:23:16;;;;;;;;;;;;;;;;;;4957908;28;20290;-78
2023/05/27 10:26:03;;;;;;;;;;;;;;;;;;4959819;28;19937;-76
2023/05/27 10:28:50;;;;;;;;;;;;;;;;;;4967070;28;19934;-78
2023/05/27 10:31:37;;;;;;;;;;;;;;;;;;4966985;28;19922;-77
2023/05/27 10:34:23;;;;;;;;;;;;;;;;;;4955451;28;19925;-76
2023/05/27 10:37:11;;;;;;;;;;;;;;;;;;4965842;28;19925;-76
2023/05/27 10:39:58;;;;;;;;;;;;;;;;;;4957123;28;19930;-78
2023/05/27 10:42:45;;;;;;;;;;;;;;;;;;4963159;28;19918;-76
2023/05/27 10:45:32;;;;;;;;;;;;;;;;;;4952725;28;19918;-77
2023/05/27 10:48:19;;;;;;;;;;;;;;;;;;4955177;28;20462;-78
2023/05/27 10:51:06;;;;;;;;;;;;;;;;;;4961818;28;20271;-77
2023/05/27 10:53:53;;;;;;;;;;;;;;;;;;4953608;28;19922;-77
2023/05/27 10:56:39;;;;;;;;;;;;;;;;;;4949880;28;19946;-77
2023/05/27 10:59:26;;;;;;;;;;;;;;;;;;4959153;28;19926;-77
2023/05/27 11:02:12;;;;;;;;;;;;;;;;;;4951461;28;20455;-77
2023/05/27 11:04:59;;;;;;;;;;;;;;;;;;4957945;28;19922;-77
2023/05/27 11:07:46;;;;;;;;;;;;;;;;;;4956639;28;19922;-78
2023/05/27 11:10:32;;;;;;;;;;;;;;;;;;4956105;28;19922;-80
2023/05/27 11:13:19;;;;;;;;;;;;;;;;;;4963915;28;20008;-78
2023/05/27 11:16:05;;;;;;;;;;;;;;;;;;4956091;28;20545;-78
2023/05/27 11:18:52;;;;;;;;;;;;;;;;;;4963134;28;19985;-77
2023/05/27 11:21:38;;;;;;;;;;;;;;;;;;4963993;28;19940;-77
2023/05/27 11:24:25;;;;;;;;;;;;;;;;;;4954851;28;19930;-78
2023/05/27 11:27:11;;;;;;;;;;;;;;;;;;4962031;28;19918;-78
2023/05/27 11:29:58;;;;;;;;;;;;;;;;;;4958383;28;19929;-78
2023/05/27 11:32:45;;;;;;;;;;;;;;;;;;4960381;28;19933;-77
2023/05/27 11:35:31;;;;;;;;;;;;;;;;;;4968261;28;19918;-78
2023/05/27 11:38:18;;;;;;;;;;;;;;;;;;4955767;28;19926;-80
2023/05/27 11:41:04;;;;;;;;;;;;;;;;;;4958390;28;19929;-77
2023/05/27 11:43:51;;;;;;;;;;;;;;;;;;4959936;28;19914;-79
2023/05/27 11:46:37;;;;;;;;;;;;;;;;;;4950080;28;20298;-79
2023/05/27 11:49:24;;;;;;;;;;;;;;;;;;4968401;28;20374;-78
2023/05/27 11:52:14;;;;;;;;;;;;;;;;;;4956270;28;19922;-78
2023/05/27 11:55:00;;;;;;;;;;;;;;;;;;4953955;28;19949;-78
2023/05/27 11:57:47;;;;;;;;;;;;;;;;;;4960470;28;20575;-78
2023/05/27 12:00:33;;;;;;;;;;;;;;;;;;4957354;28;19926;-80
2023/05/27 12:03:20;;;;;;;;;;;;;;;;;;4964608;28;19922;-82
2023/05/27 12:06:07;;;;;;;;;;;;;;;;;;4961398;28;19930;-81
2023/05/27 12:08:53;;;;;;;;;;;;;;;;;;4960196;28;20434;-84
2023/05/27 12:11:40;;;;;;;;;;;;;;;;;;4964240;28;19924;-80
2023/05/27 12:14:26;;;;;;;;;;;;;;;;;;4961533;28;19942;-83
2023/05/27 12:17:13;;;;;;;;;;;;;;;;;;4966970;28;19925;-84
2023/05/27 12:19:59;;;;;;;;;;;;;;;;;;4957979;28;19927;-80
2023/05/27 12:22:47;;;;;;;;;;;;;;;;;;4961735;28;20560;-82
2023/05/27 12:25:34;;;;;;;;;;;;;;;;;;4961747;28;19930;-84
2023/05/27 12:28:20;;;;;;;;;;;;;;;;;;4954391;28;19918;-82
2023/05/27 12:31:07;;;;;;;;;;;;;;;;;;4960985;28;19918;-81
2023/05/27 12:33:53;;;;;;;;;;;;;;;;;;4954887;28;19932;-82
2023/05/27 12:36:40;;;;;;;;;;;;;;;;;;4957479;28;19923;-83
2023/05/27 12:39:27;;;;;;;;;;;;;;;;;;4957032;28;20301;-82
2023/05/27 12:42:15;;;;;;;;;;;;;;;;;;4953016;28;20309;-81
2023/05/27 12:45:01;;;;;;;;;;;;;;;;;;4955086;28;19921;-83
2023/05/27 12:47:48;;;;;;;;;;;;;;;;;;4965727;28;19929;-86
2023/05/27 12:50:34;;;;;;;;;;;;;;;;;;4955308;28;19926;-84
2023/05/27 12:53:21;;;;;;;;;;;;;;;;;;4955051;28;19929;-83
2023/05/27 12:56:08;;;;;;;;;;;;;;;;;;4958041;28;19929;-83
2023/05/27 12:58:55;;;;;;;;;;;;;;;;;;4965007;28;19927;-82
2023/05/27 13:01:42;;;;;;;;;;;;;;;;;;4962020;28;19937;-81
2023/05/27 13:04:28;;;;;;;;;;;;;;;;;;4963886;28;19954;-80
2023/05/27 13:07:15;;;;;;;;;;;;;;;;;;4945328;28;20071;-81
2023/05/27 13:10:02;;;;;;;;;;;;;;;;;;4951359;28;19928;-82
2023/05/27 13:12:49;;;;;;;;;;;;;;;;;;4962360;28;19925;-79
2023/05/27 13:15:35;;;;;;;;;;;;;;;;;;4959817;28;19926;-80
2023/05/27 13:18:22;;;;;;;;;;;;;;;;;;4960090;28;19926;-81
2023/05/27 13:21:08;;;;;;;;;;;;;;;;;;4949130;28;19930;-82
2023/05/27 13:23:55;;;;;;;;;;;;;;;;;;4948013;28;20220;-84
2023/05/27 13:26:41;;;;;;;;;;;;;;;;;;4961049;28;19928;-82
2023/05/27 13:29:28;;;;;;;;;;;;;;;;;;4959245;28;19918;-81
2023/05/27 13:32:14;;;;;;;;;;;;;;;;;;4956696;28;19945;-81
2023/05/27 13:35:01;;;;;;;;;;;;;;;;;;4958365;28;19922;-82
2023/05/27 13:37:47;;;;;;;;;;;;;;;;;;4960238;28;19922;-82
2023/05/27 13:40:34;;;;;;;;;;;;;;;;;;4955798;28;19934;-82
2023/05/27 13:43:20;;;;;;;;;;;;;;;;;;4957831;28;19922;-82
2023/05/27 13:46:07;;;;;;;;;;;;;;;;;;4963473;28;19923;-81
2023/05/27 13:48:53;;;;;;;;;;;;;;;;;;4961235;28;19926;-81
2023/05/27 13:51:40;;;;;;;;;;;;;;;;;;4957963;28;19929;-81
2023/05/27 13:54:26;;;;;;;;;;;;;;;;;;4958533;28;19918;-81
2023/05/27 13:57:13;;;;;;;;;;;;;;;;;;4964770;28;19941;-81
2023/05/27 14:00:00;;;;;;;;;;;;;;;;;;4959283;28;19932;-81
2023/05/27 14:02:46;;;;;;;;;;;;;;;;;;4963385;28;19929;-82
2023/05/27 14:05:34;;;;;;;;;;;;;;;;;;4959554;28;19918;-83
2023/05/27 14:08:20;;;;;;;;;;;;;;;;;;4959175;28;19925;-81
2023/05/27 14:11:07;;;;;;;;;;;;;;;;;;4960923;28;20032;-82
2023/05/27 14:13:56;;;;;;;;;;;;;;;;;;4960443;28;20700;-81
2023/05/27 14:16:43;;;;;;;;;;;;;;;;;;4961352;28;19940;-80
2023/05/27 14:19:29;;;;;;;;;;;;;;;;;;4955306;28;19918;-82
2023/05/27 14:22:16;;;;;;;;;;;;;;;;;;4956330;28;19926;-81
2023/05/27 14:25:02;;;;;;;;;;;;;;;;;;4954522;28;19930;-80
2023/05/27 14:27:49;;;;;;;;;;;;;;;;;;4956712;28;19933;-82
2023/05/27 14:30:36;;;;;;;;;;;;;;;;;;4960288;28;19922;-82
2023/05/27 14:33:22;;;;;;;;;;;;;;;;;;4957942;28;19923;-83
2023/05/27 14:36:09;;;;;;;;;;;;;;;;;;4957095;28;19926;-82
2023/05/27 14:38:56;;;;;;;;;;;;;;;;;;4961687;28;19929;-82
2023/05/27 14:41:42;;;;;;;;;;;;;;;;;;4958229;28;19930;-82
2023/05/27 14:44:28;;;;;;;;;;;;;;;;;;4956575;28;19944;-82
2023/05/27 14:47:15;;;;;;;;;;;;;;;;;;4960099;28;20715;-82
2023/05/27 14:50:02;;;;;;;;;;;;;;;;;;4960763;28;19929;-83
2023/05/27 14:52:48;;;;;;;;;;;;;;;;;;4962348;28;19922;-82
2023/05/27 14:55:35;;;;;;;;;;;;;;;;;;4962352;28;19922;-83
2023/05/27 14:58:22;;;;;;;;;;;;;;;;;;4962773;28;19926;-82
2023/05/27 15:01:10;;;;;;;;;;;;;;;;;;4963538;28;19938;-82
2023/05/27 15:03:57;;;;;;;;;;;;;;;;;;4968184;28;19929;-81
2023/05/27 15:06:43;;;;;;;;;;;;;;;;;;4965543;28;19922;-81
2023/05/27 15:09:30;;;;;;;;;;;;;;;;;;4961526;28;20348;-82
2023/05/27 15:12:17;;;;;;;;;;;;;;;;;;4964617;28;19930;-83
2023/05/27 15:15:03;;;;;;;;;;;;;;;;;;4963771;28;19926;-81
2023/05/27 15:17:50;;;;;;;;;;;;;;;;;;4966296;28;20588;-82
2023/05/27 15:20:36;;;;;;;;;;;;;;;;;;4962869;28;20313;-81
2023/05/27 15:23:23;;;;;;;;;;;;;;;;;;4963357;28;19926;-81
2023/05/27 15:26:09;;;;;;;;;;;;;;;;;;4963055;28;19934;-82
2023/05/27 15:28:56;;;;;;;;;;;;;;;;;;4961905;28;19918;-81
2023/05/27 15:31:42;;;;;;;;;;;;;;;;;;4963895;28;19922;-83
2023/05/27 15:34:29;;;;;;;;;;;;;;;;;;4959080;28;19918;-84
2023/05/27 15:37:15;;;;;;;;;;;;;;;;;;4961121;28;19929;-82
2023/05/27 15:40:02;;;;;;;;;;;;;;;;;;4962830;28;19926;-83
2023/05/27 15:42:48;;;;;;;;;;;;;;;;;;4962836;28;19968;-82
2023/05/27 15:45:35;;;;;;;;;;;;;;;;;;4963051;28;19926;-82
2023/05/27 15:48:21;;;;;;;;;;;;;;;;;;4963522;28;20026;-81
2023/05/27 15:51:08;;;;;;;;;;;;;;;;;;4961815;28;19933;-82
2023/05/27 15:53:54;;;;;;;;;;;;;;;;;;4964313;28;20263;-82
2023/05/27 15:56:43;;;;;;;;;;;;;;;;;;4960041;28;19926;-83
2023/05/27 15:59:30;;;;;;;;;;;;;;;;;;4961288;28;19918;-80
2023/05/27 16:02:16;;;;;;;;;;;;;;;;;;4960605;28;20329;-81
2023/05/27 16:05:03;;;;;;;;;;;;;;;;;;4959225;28;20001;-81
2023/05/27 16:07:49;;;;;;;;;;;;;;;;;;4961618;28;19937;-77
2023/05/27 16:10:36;;;;;;;;;;;;;;;;;;4936825;28;19937;-80
2023/05/27 16:13:22;;;;;;;;;;;;;;;;;;4959102;28;19925;-82
2023/05/27 16:16:09;;;;;;;;;;;;;;;;;;4955210;28;19926;-81
2023/05/27 16:18:55;;;;;;;;;;;;;;;;;;4961058;28;19918;-79
2023/05/27 16:21:43;;;;;;;;;;;;;;;;;;4962418;28;19937;-79
2023/05/27 16:24:30;;;;;;;;;;;;;;;;;;4958623;28;19937;-79
2023/05/27 16:27:17;;;;;;;;;;;;;;;;;;4956258;28;20262;-79
2023/05/27 16:30:03;;;;;;;;;;;;;;;;;;4962081;28;19922;-78
2023/05/27 16:32:52;;;;;;;;;;;;;;;;;;4962562;28;20285;-79
2023/05/27 16:35:38;;;;;;;;;;;;;;;;;;4958393;28;19927;-80
2023/05/27 16:38:25;;;;;;;;;;;;;;;;;;4964540;28;19925;-79
2023/05/27 16:41:12;;;;;;;;;;;;;;;;;;4960591;28;20570;-78
2023/05/27 16:43:58;;;;;;;;;;;;;;;;;;4959793;28;19922;-79
2023/05/27 16:46:45;;;;;;;;;;;;;;;;;;4957421;28;19918;-79
2023/05/27 16:49:32;;;;;;;;;;;;;;;;;;4956687;28;20374;-79
2023/05/27 16:52:18;;;;;;;;;;;;;;;;;;4963586;28;20169;-79
2023/05/27 16:55:06;;;;;;;;;;;;;;;;;;4959614;28;19924;-81
2023/05/27 16:57:52;;;;;;;;;;;;;;;;;;4961772;28;20564;-80
2023/05/27 17:00:38;;;;;;;;;;;;;;;;;;4959813;28;19926;-79
2023/05/27 17:03:25;;;;;;;;;;;;;;;;;;4959646;28;19930;-79
2023/05/27 17:06:12;;;;;;;;;;;;;;;;;;4960060;28;20929;-79
2023/05/27 17:08:58;;;;;;;;;;;;;;;;;;4963135;28;19918;-79
2023/05/27 17:11:45;;;;;;;;;;;;;;;;;;4960364;28;19922;-79
2023/05/27 17:14:32;;;;;;;;;;;;;;;;;;4960984;28;19938;-80
2023/05/27 17:17:19;;;;;;;;;;;;;;;;;;4955255;28;19929;-80
2023/05/27 17:20:06;;;;;;;;;;;;;;;;;;4957367;28;19933;-80
2023/05/27 17:22:53;;;;;;;;;;;;;;;;;;4966120;28;19922;-79
2023/05/27 17:25:39;;;;;;;;;;;;;;;;;;4960242;28;19967;-79
2023/05/27 17:28:26;;;;;;;;;;;;;;;;;;4957922;28;19928;-81
2023/05/27 17:31:12;;;;;;;;;;;;;;;;;;4959449;28;20382;-79
2023/05/27 17:33:59;;;;;;;;;;;;;;;;;;4959753;28;19929;-79
2023/05/27 17:36:45;;;;;;;;;;;;;;;;;;4959325;28;19919;-79
2023/05/27 17:39:32;;;;;;;;;;;;;;;;;;4957226;28;19918;-78
2023/05/27 17:42:18;;;;;;;;;;;;;;;;;;4958419;28;19965;-80
2023/05/27 17:45:05;;;;;;;;;;;;;;;;;;4960786;28;19926;-78
2023/05/27 17:47:51;;;;;;;;;;;;;;;;;;4960650;28;19922;-78
2023/05/27 17:50:38;;;;;;;;;;;;;;;;;;4958233;28;20448;-79
2023/05/27 17:53:24;;;;;;;;;;;;;;;;;;4959987;28;19922;-79
2023/05/27 17:56:11;;;;;;;;;;;;;;;;;;4958619;28;19922;-79
2023/05/27 17:58:57;;;;;;;;;;;;;;;;;;4962038;28;19918;-80
2023/05/27 18:01:44;;;;;;;;;;;;;;;;;;4957580;28;20093;-78
2023/05/27 18:04:30;;;;;;;;;;;;;;;;;;4956703;28;19920;-79
2023/05/27 18:07:17;;;;;;;;;;;;;;;;;;4958011;28;19924;-79
2023/05/27 18:10:03;;;;;;;;;;;;;;;;;;4957219;28;19926;-78
2023/05/27 18:12:51;;;;;;;;;;;;;;;;;;4955821;28;19922;-79
2023/05/27 18:15:38;;;;;;;;;;;;;;;;;;4957908;28;19933;-79
2023/05/27 18:18:24;;;;;;;;;;;;;;;;;;4957303;28;19934;-83
2023/05/27 18:21:11;;;;;;;;;;;;;;;;;;4946708;28;19934;-83
2023/05/27 18:23:57;;;;;;;;;;;;;;;;;;4947126;28;20374;-81
2023/05/27 18:26:44;;;;;;;;;;;;;;;;;;4961257;28;19933;-81
2023/05/27 18:29:30;;;;;;;;;;;;;;;;;;4957432;28;20306;-82
2023/05/27 18:32:17;;;;;;;;;;;;;;;;;;4960329;28;19919;-82
2023/05/27 18:35:03;;;;;;;;;;;;;;;;;;4960357;28;19918;-83
2023/05/27 18:37:50;;;;;;;;;;;;;;;;;;4958943;28;19928;-84
2023/05/27 18:40:36;;;;;;;;;;;;;;;;;;4959921;28;20340;-82
2023/05/27 18:43:23;;;;;;;;;;;;;;;;;;4958298;28;19966;-81
2023/05/27 18:46:09;;;;;;;;;;;;;;;;;;4956006;28;19922;-82
2023/05/27 18:48:56;;;;;;;;;;;;;;;;;;4959053;28;19926;-83
2023/05/27 18:51:42;;;;;;;;;;;;;;;;;;4956747;28;19922;-82
2023/05/27 18:54:29;;;;;;;;;;;;;;;;;;4955424;28;19922;-86
2023/05/27 18:57:19;;;;;;;;;;;;;;;;;;4961345;28;19930;-80